sensor_id;sensor_type;location;lat;lon;timestamp;P1;durP1;ratioP1;P2;durP2;ratioP2
2620;SDS011;1320;48.128;11.592;2023-02-28T00:01:16;6.75;;;4.05;;
2620;SDS011;1320;48.128;11.592;2023-02-28T00:03:42;6.73;;;3.60;;
2620;SDS011;1320;48.128;11.592;2023-02-28T00:06:08;5.53;;;3.80;;
2620;SDS011;1320;48.128;11.592;2023-02-28T00:08:37;5.60;;;3.38;;
2620;SDS011;1320;48.128;11.592;2023-02-28T00:11:05;7.25;;;4.15;;
2620;SDS011;1320;48.128;11.592;2023-02-28T00:13:33;5.43;;;2.92;;
2620;SDS011;1320;48.128;11.592;2023-02-28T00:16:02;7.60;;;4.38;;
2620;SDS011;1320;48.128;11.592;2023-02-28T00:18:35;8.00;;;3.75;;
2620;SDS011;1320;48.128;11.592;2023-02-28T00:21:01;5.35;;;3.38;;
2620;SDS011;1320;48.128;11.592;2023-02-28T00:23:27;8.00;;;3.87;;
2620;SDS011;1320;48.128;11.592;2023-02-28T00:25:54;6.78;;;4.00;;
2620;SDS011;1320;48.128;11.592;2023-02-28T00:28:21;5.70;;;4.47;;
2620;SDS011;1320;48.128;11.592;2023-02-28T00:30:47;5.00;;;3.10;;
2620;SDS011;1320;48.128;11.592;2023-02-28T00:33:13;9.47;;;4.10;;
2620;SDS011;1320;48.128;11.592;2023-02-28T00:35:39;9.70;;;3.80;;
2620;SDS011;1320;48.128;11.592;2023-02-28T00:38:04;6.77;;;3.90;;
2620;SDS011;1320;48.128;11.592;2023-02-28T00:40:30;6.73;;;4.13;;
2620;SDS011;1320;48.128;11.592;2023-02-28T00:42:56;6.65;;;3.88;;
2620;SDS011;1320;48.128;11.592;2023-02-28T00:45:22;8.20;;;3.93;;
2620;SDS011;1320;48.128;11.592;2023-02-28T00:47:48;6.23;;;4.07;;
2620;SDS011;1320;48.128;11.592;2023-02-28T00:50:18;7.43;;;3.70;;
2620;SDS011;1320;48.128;11.592;2023-02-28T00:52:45;7.40;;;4.18;;
2620;SDS011;1320;48.128;11.592;2023-02-28T00:55:11;6.82;;;3.88;;
2620;SDS011;1320;48.128;11.592;2023-02-28T00:57:36;5.10;;;3.17;;
2620;SDS011;1320;48.128;11.592;2023-02-28T01:00:02;6.23;;;3.73;;
2620;SDS011;1320;48.128;11.592;2023-02-28T01:02:29;8.50;;;4.10;;
2620;SDS011;1320;48.128;11.592;2023-02-28T01:04:54;5.43;;;3.70;;
2620;SDS011;1320;48.128;11.592;2023-02-28T01:07:21;6.60;;;3.45;;
2620;SDS011;1320;48.128;11.592;2023-02-28T01:09:47;5.03;;;4.00;;
2620;SDS011;1320;48.128;11.592;2023-02-28T01:12:13;6.83;;;4.33;;
2620;SDS011;1320;48.128;11.592;2023-02-28T01:14:39;7.43;;;3.37;;
2620;SDS011;1320;48.128;11.592;2023-02-28T01:17:05;8.10;;;4.90;;
2620;SDS011;1320;48.128;11.592;2023-02-28T01:19:30;10.87;;;3.70;;
2620;SDS011;1320;48.128;11.592;2023-02-28T01:21:56;6.40;;;3.63;;
2620;SDS011;1320;48.128;11.592;2023-02-28T01:24:25;5.95;;;3.90;;
2620;SDS011;1320;48.128;11.592;2023-02-28T01:26:50;6.03;;;3.93;;
2620;SDS011;1320;48.128;11.592;2023-02-28T01:29:16;6.10;;;3.30;;
2620;SDS011;1320;48.128;11.592;2023-02-28T01:31:41;6.20;;;3.87;;
2620;SDS011;1320;48.128;11.592;2023-02-28T01:34:07;6.17;;;3.57;;
2620;SDS011;1320;48.128;11.592;2023-02-28T01:36:33;5.97;;;4.30;;
2620;SDS011;1320;48.128;11.592;2023-02-28T01:38:58;8.47;;;4.73;;
2620;SDS011;1320;48.128;11.592;2023-02-28T01:41:28;7.53;;;4.27;;
2620;SDS011;1320;48.128;11.592;2023-02-28T01:46:47;6.38;;;3.70;;
2620;SDS011;1320;48.128;11.592;2023-02-28T01:49:14;8.50;;;4.07;;
2620;SDS011;1320;48.128;11.592;2023-02-28T01:51:43;7.00;;;4.38;;
2620;SDS011;1320;48.128;11.592;2023-02-28T01:54:20;6.03;;;3.60;;
2620;SDS011;1320;48.128;11.592;2023-02-28T01:57:23;9.02;;;5.03;;
2620;SDS011;1320;48.128;11.592;2023-02-28T01:59:57;8.65;;;3.78;;
2620;SDS011;1320;48.128;11.592;2023-02-28T02:02:26;6.97;;;3.90;;
2620;SDS011;1320;48.128;11.592;2023-02-28T02:05:04;7.45;;;4.00;;
2620;SDS011;1320;48.128;11.592;2023-02-28T02:07:37;8.25;;;4.32;;
2620;SDS011;1320;48.128;11.592;2023-02-28T02:12:58;6.60;;;3.88;;
2620;SDS011;1320;48.128;11.592;2023-02-28T02:18:48;7.05;;;4.10;;
2620;SDS011;1320;48.128;11.592;2023-02-28T02:40:22;6.25;;;4.55;;
2620;SDS011;1320;48.128;11.592;2023-02-28T02:42:51;5.20;;;4.20;;
2620;SDS011;1320;48.128;11.592;2023-02-28T02:48:11;5.40;;;4.13;;
2620;SDS011;1320;48.128;11.592;2023-02-28T02:50:44;6.95;;;4.30;;
2620;SDS011;1320;48.128;11.592;2023-02-28T02:53:14;7.10;;;4.47;;
2620;SDS011;1320;48.128;11.592;2023-02-28T02:55:44;6.72;;;4.13;;
2620;SDS011;1320;48.128;11.592;2023-02-28T02:58:18;8.60;;;4.13;;
2620;SDS011;1320;48.128;11.592;2023-02-28T03:00:47;6.05;;;4.10;;
2620;SDS011;1320;48.128;11.592;2023-02-28T03:03:18;9.50;;;4.22;;
2620;SDS011;1320;48.128;11.592;2023-02-28T03:05:54;7.38;;;4.57;;
2620;SDS011;1320;48.128;11.592;2023-02-28T03:08:21;6.85;;;4.20;;
2620;SDS011;1320;48.128;11.592;2023-02-28T03:10:57;6.50;;;4.50;;
2620;SDS011;1320;48.128;11.592;2023-02-28T03:21:33;7.80;;;4.20;;
2620;SDS011;1320;48.128;11.592;2023-02-28T03:26:31;9.30;;;4.40;;
2620;SDS011;1320;48.128;11.592;2023-02-28T03:31:44;7.85;;;4.22;;
2620;SDS011;1320;48.128;11.592;2023-02-28T03:34:26;8.60;;;4.60;;
2620;SDS011;1320;48.128;11.592;2023-02-28T03:36:59;7.95;;;4.22;;
2620;SDS011;1320;48.128;11.592;2023-02-28T03:39:39;7.20;;;3.95;;
2620;SDS011;1320;48.128;11.592;2023-02-28T03:42:14;7.65;;;4.80;;
2620;SDS011;1320;48.128;11.592;2023-02-28T03:44:45;8.30;;;4.78;;
2620;SDS011;1320;48.128;11.592;2023-02-28T03:50:20;6.70;;;4.60;;
2620;SDS011;1320;48.128;11.592;2023-02-28T03:52:54;6.53;;;4.35;;
2620;SDS011;1320;48.128;11.592;2023-02-28T03:55:35;7.35;;;4.60;;
2620;SDS011;1320;48.128;11.592;2023-02-28T04:00:49;9.23;;;4.93;;
2620;SDS011;1320;48.128;11.592;2023-02-28T04:03:20;6.85;;;4.38;;
2620;SDS011;1320;48.128;11.592;2023-02-28T04:05:53;8.23;;;6.00;;
2620;SDS011;1320;48.128;11.592;2023-02-28T04:08:20;7.72;;;5.00;;
2620;SDS011;1320;48.128;11.592;2023-02-28T04:10:49;8.32;;;4.50;;
2620;SDS011;1320;48.128;11.592;2023-02-28T04:13:51;13.40;;;5.90;;
2620;SDS011;1320;48.128;11.592;2023-02-28T04:16:17;8.57;;;5.47;;
2620;SDS011;1320;48.128;11.592;2023-02-28T04:18:42;10.17;;;5.63;;
2620;SDS011;1320;48.128;11.592;2023-02-28T04:21:09;9.70;;;5.67;;
2620;SDS011;1320;48.128;11.592;2023-02-28T04:23:35;11.05;;;5.50;;
2620;SDS011;1320;48.128;11.592;2023-02-28T04:26:00;11.77;;;6.20;;
2620;SDS011;1320;48.128;11.592;2023-02-28T04:28:26;9.00;;;5.57;;
2620;SDS011;1320;48.128;11.592;2023-02-28T04:30:59;12.33;;;5.90;;
2620;SDS011;1320;48.128;11.592;2023-02-28T04:33:27;10.38;;;5.28;;
2620;SDS011;1320;48.128;11.592;2023-02-28T04:38:32;11.40;;;6.07;;
2620;SDS011;1320;48.128;11.592;2023-02-28T04:40:59;10.27;;;5.78;;
2620;SDS011;1320;48.128;11.592;2023-02-28T04:43:28;10.40;;;6.30;;
2620;SDS011;1320;48.128;11.592;2023-02-28T04:45:55;10.93;;;6.10;;
2620;SDS011;1320;48.128;11.592;2023-02-28T04:48:22;10.43;;;6.20;;
2620;SDS011;1320;48.128;11.592;2023-02-28T04:50:49;10.10;;;5.95;;
2620;SDS011;1320;48.128;11.592;2023-02-28T04:53:15;11.57;;;6.05;;
2620;SDS011;1320;48.128;11.592;2023-02-28T04:55:42;11.75;;;7.05;;
2620;SDS011;1320;48.128;11.592;2023-02-28T04:58:07;14.00;;;6.93;;
2620;SDS011;1320;48.128;11.592;2023-02-28T05:00:33;10.77;;;7.07;;
2620;SDS011;1320;48.128;11.592;2023-02-28T05:02:59;16.03;;;7.53;;
2620;SDS011;1320;48.128;11.592;2023-02-28T05:05:24;13.17;;;8.50;;
2620;SDS011;1320;48.128;11.592;2023-02-28T05:07:50;10.77;;;7.10;;
2620;SDS011;1320;48.128;11.592;2023-02-28T05:10:16;13.03;;;7.80;;
2620;SDS011;1320;48.128;11.592;2023-02-28T05:12:41;12.03;;;8.10;;
2620;SDS011;1320;48.128;11.592;2023-02-28T05:15:08;11.73;;;7.20;;
2620;SDS011;1320;48.128;11.592;2023-02-28T05:17:38;13.50;;;7.05;;
2620;SDS011;1320;48.128;11.592;2023-02-28T05:20:03;11.77;;;7.00;;
2620;SDS011;1320;48.128;11.592;2023-02-28T05:22:30;13.50;;;8.50;;
2620;SDS011;1320;48.128;11.592;2023-02-28T05:24:55;13.97;;;8.10;;
2620;SDS011;1320;48.128;11.592;2023-02-28T05:27:21;10.03;;;7.17;;
2620;SDS011;1320;48.128;11.592;2023-02-28T05:29:46;10.17;;;7.50;;
2620;SDS011;1320;48.128;11.592;2023-02-28T05:32:13;12.17;;;7.27;;
2620;SDS011;1320;48.128;11.592;2023-02-28T05:34:40;12.13;;;6.78;;
2620;SDS011;1320;48.128;11.592;2023-02-28T05:37:07;13.27;;;8.18;;
2620;SDS011;1320;48.128;11.592;2023-02-28T05:39:37;13.82;;;8.35;;
2620;SDS011;1320;48.128;11.592;2023-02-28T05:42:03;18.60;;;10.40;;
2620;SDS011;1320;48.128;11.592;2023-02-28T05:44:29;12.27;;;7.97;;
2620;SDS011;1320;48.128;11.592;2023-02-28T05:46:55;23.70;;;8.93;;
2620;SDS011;1320;48.128;11.592;2023-02-28T05:49:20;16.27;;;9.03;;
2620;SDS011;1320;48.128;11.592;2023-02-28T05:51:46;13.13;;;8.13;;
2620;SDS011;1320;48.128;11.592;2023-02-28T05:54:12;17.67;;;9.03;;
2620;SDS011;1320;48.128;11.592;2023-02-28T05:56:38;15.30;;;7.50;;
2620;SDS011;1320;48.128;11.592;2023-02-28T05:59:05;16.00;;;10.05;;
2620;SDS011;1320;48.128;11.592;2023-02-28T06:01:37;16.25;;;9.20;;
2620;SDS011;1320;48.128;11.592;2023-02-28T06:04:04;14.82;;;9.27;;
2620;SDS011;1320;48.128;11.592;2023-02-28T06:06:32;13.82;;;9.05;;
2620;SDS011;1320;48.128;11.592;2023-02-28T06:08:59;18.60;;;11.45;;
2620;SDS011;1320;48.128;11.592;2023-02-28T06:11:25;17.85;;;11.30;;
2620;SDS011;1320;48.128;11.592;2023-02-28T06:13:55;15.55;;;10.88;;
2620;SDS011;1320;48.128;11.592;2023-02-28T06:16:24;17.55;;;9.70;;
2620;SDS011;1320;48.128;11.592;2023-02-28T06:18:51;13.45;;;9.60;;
2620;SDS011;1320;48.128;11.592;2023-02-28T06:21:21;15.82;;;9.35;;
2620;SDS011;1320;48.128;11.592;2023-02-28T06:23:46;15.47;;;11.23;;
2620;SDS011;1320;48.128;11.592;2023-02-28T06:26:12;17.27;;;10.10;;
2620;SDS011;1320;48.128;11.592;2023-02-28T06:28:38;18.13;;;10.73;;
2620;SDS011;1320;48.128;11.592;2023-02-28T06:31:07;15.97;;;9.60;;
2620;SDS011;1320;48.128;11.592;2023-02-28T06:33:35;18.60;;;11.32;;
2620;SDS011;1320;48.128;11.592;2023-02-28T06:36:01;16.35;;;10.55;;
2620;SDS011;1320;48.128;11.592;2023-02-28T06:38:28;19.35;;;11.20;;
2620;SDS011;1320;48.128;11.592;2023-02-28T06:40:57;16.27;;;9.50;;
2620;SDS011;1320;48.128;11.592;2023-02-28T06:43:23;19.15;;;9.02;;
2620;SDS011;1320;48.128;11.592;2023-02-28T06:45:50;14.88;;;10.52;;
2620;SDS011;1320;48.128;11.592;2023-02-28T06:48:19;15.95;;;9.73;;
2620;SDS011;1320;48.128;11.592;2023-02-28T06:50:44;22.47;;;12.03;;
2620;SDS011;1320;48.128;11.592;2023-02-28T06:53:10;16.27;;;10.13;;
2620;SDS011;1320;48.128;11.592;2023-02-28T06:55:37;18.20;;;11.47;;
2620;SDS011;1320;48.128;11.592;2023-02-28T06:58:03;18.70;;;11.73;;
2620;SDS011;1320;48.128;11.592;2023-02-28T07:00:39;19.45;;;11.23;;
2620;SDS011;1320;48.128;11.592;2023-02-28T07:03:06;19.23;;;11.70;;
2620;SDS011;1320;48.128;11.592;2023-02-28T07:05:31;18.20;;;12.00;;
2620;SDS011;1320;48.128;11.592;2023-02-28T07:08:00;16.52;;;11.25;;
2620;SDS011;1320;48.128;11.592;2023-02-28T07:10:25;18.43;;;12.30;;
2620;SDS011;1320;48.128;11.592;2023-02-28T07:12:51;20.83;;;11.67;;
2620;SDS011;1320;48.128;11.592;2023-02-28T07:15:17;21.33;;;11.50;;
2620;SDS011;1320;48.128;11.592;2023-02-28T07:17:42;19.63;;;10.77;;
2620;SDS011;1320;48.128;11.592;2023-02-28T07:20:08;20.00;;;11.43;;
2620;SDS011;1320;48.128;11.592;2023-02-28T07:22:34;19.50;;;12.48;;
2620;SDS011;1320;48.128;11.592;2023-02-28T07:25:00;15.17;;;10.23;;
2620;SDS011;1320;48.128;11.592;2023-02-28T07:27:26;18.33;;;10.70;;
2620;SDS011;1320;48.128;11.592;2023-02-28T07:29:51;23.10;;;12.70;;
2620;SDS011;1320;48.128;11.592;2023-02-28T07:32:18;15.40;;;10.95;;
2620;SDS011;1320;48.128;11.592;2023-02-28T07:34:44;15.75;;;11.63;;
2620;SDS011;1320;48.128;11.592;2023-02-28T07:37:10;15.97;;;10.77;;
2620;SDS011;1320;48.128;11.592;2023-02-28T07:39:36;18.57;;;12.00;;
2620;SDS011;1320;48.128;11.592;2023-02-28T07:42:05;17.33;;;12.30;;
2620;SDS011;1320;48.128;11.592;2023-02-28T07:44:31;16.88;;;11.93;;
2620;SDS011;1320;48.128;11.592;2023-02-28T07:46:57;18.80;;;10.37;;
2620;SDS011;1320;48.128;11.592;2023-02-28T07:49:23;16.00;;;12.50;;
2620;SDS011;1320;48.128;11.592;2023-02-28T07:51:49;21.37;;;12.07;;
2620;SDS011;1320;48.128;11.592;2023-02-28T07:54:14;24.07;;;12.63;;
2620;SDS011;1320;48.128;11.592;2023-02-28T07:56:40;21.10;;;12.63;;
2620;SDS011;1320;48.128;11.592;2023-02-28T07:59:05;19.10;;;12.20;;
2620;SDS011;1320;48.128;11.592;2023-02-28T08:01:31;17.60;;;11.87;;
2620;SDS011;1320;48.128;11.592;2023-02-28T08:03:57;16.83;;;11.70;;
2620;SDS011;1320;48.128;11.592;2023-02-28T08:06:23;18.27;;;11.43;;
2620;SDS011;1320;48.128;11.592;2023-02-28T08:08:50;14.68;;;10.07;;
2620;SDS011;1320;48.128;11.592;2023-02-28T08:11:16;19.73;;;12.23;;
2620;SDS011;1320;48.128;11.592;2023-02-28T08:13:42;17.92;;;11.45;;
2620;SDS011;1320;48.128;11.592;2023-02-28T08:16:09;18.60;;;12.63;;
2620;SDS011;1320;48.128;11.592;2023-02-28T08:18:36;16.42;;;11.77;;
2620;SDS011;1320;48.128;11.592;2023-02-28T08:21:08;19.17;;;12.15;;
2620;SDS011;1320;48.128;11.592;2023-02-28T08:23:35;22.52;;;13.82;;
2620;SDS011;1320;48.128;11.592;2023-02-28T08:26:01;23.70;;;12.88;;
2620;SDS011;1320;48.128;11.592;2023-02-28T08:28:26;15.90;;;12.23;;
2620;SDS011;1320;48.128;11.592;2023-02-28T08:30:52;16.70;;;11.37;;
2620;SDS011;1320;48.128;11.592;2023-02-28T08:33:18;20.05;;;11.40;;
2620;SDS011;1320;48.128;11.592;2023-02-28T08:35:44;16.67;;;12.00;;
2620;SDS011;1320;48.128;11.592;2023-02-28T08:38:10;21.87;;;15.10;;
2620;SDS011;1320;48.128;11.592;2023-02-28T08:40:35;17.40;;;11.20;;
2620;SDS011;1320;48.128;11.592;2023-02-28T08:43:01;18.07;;;13.07;;
2620;SDS011;1320;48.128;11.592;2023-02-28T08:45:26;21.00;;;15.03;;
2620;SDS011;1320;48.128;11.592;2023-02-28T08:47:53;16.67;;;12.77;;
2620;SDS011;1320;48.128;11.592;2023-02-28T08:50:20;16.60;;;12.38;;
2620;SDS011;1320;48.128;11.592;2023-02-28T08:52:46;17.38;;;12.13;;
2620;SDS011;1320;48.128;11.592;2023-02-28T08:55:12;19.00;;;12.37;;
2620;SDS011;1320;48.128;11.592;2023-02-28T08:57:38;15.68;;;11.70;;
2620;SDS011;1320;48.128;11.592;2023-02-28T09:00:03;15.43;;;12.40;;
2620;SDS011;1320;48.128;11.592;2023-02-28T09:02:33;15.60;;;12.27;;
2620;SDS011;1320;48.128;11.592;2023-02-28T09:04:58;19.60;;;11.85;;
2620;SDS011;1320;48.128;11.592;2023-02-28T09:07:24;17.87;;;11.43;;
2620;SDS011;1320;48.128;11.592;2023-02-28T09:09:50;21.05;;;12.93;;
2620;SDS011;1320;48.128;11.592;2023-02-28T09:12:22;17.35;;;11.43;;
2620;SDS011;1320;48.128;11.592;2023-02-28T09:14:49;22.15;;;12.65;;
2620;SDS011;1320;48.128;11.592;2023-02-28T09:17:15;20.17;;;13.40;;
2620;SDS011;1320;48.128;11.592;2023-02-28T09:19:41;16.27;;;11.85;;
2620;SDS011;1320;48.128;11.592;2023-02-28T09:22:07;19.40;;;12.82;;
2620;SDS011;1320;48.128;11.592;2023-02-28T09:24:34;19.70;;;13.68;;
2620;SDS011;1320;48.128;11.592;2023-02-28T09:27:01;19.38;;;12.75;;
2620;SDS011;1320;48.128;11.592;2023-02-28T09:29:27;18.63;;;11.57;;
2620;SDS011;1320;48.128;11.592;2023-02-28T09:31:53;21.33;;;12.50;;
2620;SDS011;1320;48.128;11.592;2023-02-28T09:34:18;20.17;;;13.30;;
2620;SDS011;1320;48.128;11.592;2023-02-28T09:36:44;23.15;;;14.20;;
2620;SDS011;1320;48.128;11.592;2023-02-28T09:39:10;25.43;;;13.93;;
2620;SDS011;1320;48.128;11.592;2023-02-28T09:41:39;18.42;;;12.25;;
2620;SDS011;1320;48.128;11.592;2023-02-28T09:44:13;18.92;;;11.82;;
2620;SDS011;1320;48.128;11.592;2023-02-28T09:47:01;20.70;;;13.10;;
2620;SDS011;1320;48.128;11.592;2023-02-28T09:49:37;15.85;;;10.75;;
2620;SDS011;1320;48.128;11.592;2023-02-28T09:52:15;17.45;;;12.10;;
2620;SDS011;1320;48.128;11.592;2023-02-28T09:54:48;19.15;;;12.80;;
2620;SDS011;1320;48.128;11.592;2023-02-28T09:57:36;16.97;;;12.00;;
2620;SDS011;1320;48.128;11.592;2023-02-28T10:00:10;15.98;;;11.60;;
2620;SDS011;1320;48.128;11.592;2023-02-28T10:05:30;24.33;;;13.93;;
2620;SDS011;1320;48.128;11.592;2023-02-28T10:10:51;20.05;;;13.18;;
2620;SDS011;1320;48.128;11.592;2023-02-28T10:13:24;19.02;;;12.90;;
2620;SDS011;1320;48.128;11.592;2023-02-28T10:16:03;18.55;;;12.43;;
2620;SDS011;1320;48.128;11.592;2023-02-28T10:21:17;19.55;;;14.10;;
2620;SDS011;1320;48.128;11.592;2023-02-28T10:24:01;23.45;;;14.75;;
2620;SDS011;1320;48.128;11.592;2023-02-28T10:26:40;20.30;;;14.80;;
2620;SDS011;1320;48.128;11.592;2023-02-28T10:29:09;19.45;;;13.50;;
2620;SDS011;1320;48.128;11.592;2023-02-28T10:31:35;21.55;;;12.60;;
2620;SDS011;1320;48.128;11.592;2023-02-28T10:34:01;19.07;;;11.77;;
2620;SDS011;1320;48.128;11.592;2023-02-28T10:36:28;18.88;;;12.43;;
2620;SDS011;1320;48.128;11.592;2023-02-28T10:38:54;24.07;;;13.60;;
2620;SDS011;1320;48.128;11.592;2023-02-28T10:43:53;18.10;;;12.07;;
2620;SDS011;1320;48.128;11.592;2023-02-28T10:46:39;20.02;;;13.65;;
2620;SDS011;1320;48.128;11.592;2023-02-28T10:49:12;19.95;;;12.40;;
2620;SDS011;1320;48.128;11.592;2023-02-28T10:51:54;16.75;;;11.10;;
2620;SDS011;1320;48.128;11.592;2023-02-28T10:54:35;17.50;;;12.40;;
2620;SDS011;1320;48.128;11.592;2023-02-28T10:59:42;18.35;;;12.73;;
2620;SDS011;1320;48.128;11.592;2023-02-28T11:04:56;15.55;;;11.77;;
2620;SDS011;1320;48.128;11.592;2023-02-28T11:07:22;16.97;;;12.20;;
2620;SDS011;1320;48.128;11.592;2023-02-28T11:09:50;18.00;;;11.02;;
2620;SDS011;1320;48.128;11.592;2023-02-28T11:12:23;23.67;;;11.93;;
2620;SDS011;1320;48.128;11.592;2023-02-28T11:15:06;18.15;;;13.27;;
2620;SDS011;1320;48.128;11.592;2023-02-28T11:17:42;18.75;;;12.00;;
2620;SDS011;1320;48.128;11.592;2023-02-28T11:20:10;16.93;;;11.40;;
2620;SDS011;1320;48.128;11.592;2023-02-28T11:22:46;20.15;;;13.23;;
2620;SDS011;1320;48.128;11.592;2023-02-28T11:25:16;17.83;;;12.30;;
2620;SDS011;1320;48.128;11.592;2023-02-28T11:27:49;15.73;;;12.10;;
2620;SDS011;1320;48.128;11.592;2023-02-28T11:30:26;19.80;;;11.70;;
2620;SDS011;1320;48.128;11.592;2023-02-28T11:32:58;17.45;;;12.63;;
2620;SDS011;1320;48.128;11.592;2023-02-28T11:35:36;19.25;;;11.60;;
2620;SDS011;1320;48.128;11.592;2023-02-28T11:38:05;20.70;;;12.82;;
2620;SDS011;1320;48.128;11.592;2023-02-28T11:40:43;16.83;;;13.32;;
2620;SDS011;1320;48.128;11.592;2023-02-28T11:49:07;18.08;;;12.68;;
2620;SDS011;1320;48.128;11.592;2023-02-28T11:52:10;16.77;;;10.70;;
2620;SDS011;1320;48.128;11.592;2023-02-28T12:03:14;19.63;;;12.25;;
2620;SDS011;1320;48.128;11.592;2023-02-28T12:05:56;19.80;;;11.95;;
2620;SDS011;1320;48.128;11.592;2023-02-28T12:13:49;18.80;;;11.80;;
2620;SDS011;1320;48.128;11.592;2023-02-28T12:19:17;16.20;;;11.48;;
2620;SDS011;1320;48.128;11.592;2023-02-28T12:24:39;16.90;;;12.27;;
2620;SDS011;1320;48.128;11.592;2023-02-28T12:27:11;15.07;;;11.40;;
2620;SDS011;1320;48.128;11.592;2023-02-28T12:29:43;15.77;;;11.73;;
2620;SDS011;1320;48.128;11.592;2023-02-28T12:32:33;15.80;;;11.55;;
2620;SDS011;1320;48.128;11.592;2023-02-28T12:37:38;16.63;;;11.50;;
2620;SDS011;1320;48.128;11.592;2023-02-28T12:40:21;16.00;;;11.13;;
2620;SDS011;1320;48.128;11.592;2023-02-28T12:42:52;17.50;;;12.02;;
2620;SDS011;1320;48.128;11.592;2023-02-28T12:45:23;25.48;;;11.98;;
2620;SDS011;1320;48.128;11.592;2023-02-28T12:47:57;22.17;;;11.95;;
2620;SDS011;1320;48.128;11.592;2023-02-28T12:50:26;19.25;;;12.32;;
2620;SDS011;1320;48.128;11.592;2023-02-28T12:55:26;14.38;;;11.30;;
2620;SDS011;1320;48.128;11.592;2023-02-28T13:06:33;15.27;;;10.73;;
2620;SDS011;1320;48.128;11.592;2023-02-28T13:11:43;16.35;;;10.43;;
2620;SDS011;1320;48.128;11.592;2023-02-28T13:19:22;201.95;;;43.50;;
2620;SDS011;1320;48.128;11.592;2023-02-28T13:21:51;53.20;;;18.77;;
2620;SDS011;1320;48.128;11.592;2023-02-28T13:47:33;15.82;;;11.90;;
2620;SDS011;1320;48.128;11.592;2023-02-28T13:55:49;16.60;;;10.98;;
2620;SDS011;1320;48.128;11.592;2023-02-28T14:09:02;16.90;;;11.30;;
2620;SDS011;1320;48.128;11.592;2023-02-28T14:11:33;15.40;;;11.20;;
2620;SDS011;1320;48.128;11.592;2023-02-28T14:14:01;17.52;;;11.40;;
2620;SDS011;1320;48.128;11.592;2023-02-28T14:16:36;16.48;;;11.15;;
2620;SDS011;1320;48.128;11.592;2023-02-28T14:19:14;13.57;;;10.55;;
2620;SDS011;1320;48.128;11.592;2023-02-28T14:21:45;12.50;;;9.98;;
2620;SDS011;1320;48.128;11.592;2023-02-28T14:37:50;13.13;;;10.13;;
2620;SDS011;1320;48.128;11.592;2023-02-28T14:40:22;12.67;;;9.33;;
2620;SDS011;1320;48.128;11.592;2023-02-28T14:43:00;17.27;;;11.23;;
2620;SDS011;1320;48.128;11.592;2023-02-28T14:45:29;13.77;;;10.02;;
2620;SDS011;1320;48.128;11.592;2023-02-28T14:47:57;16.95;;;10.60;;
2620;SDS011;1320;48.128;11.592;2023-02-28T14:50:26;15.23;;;11.80;;
2620;SDS011;1320;48.128;11.592;2023-02-28T14:52:57;71.90;;;18.67;;
2620;SDS011;1320;48.128;11.592;2023-02-28T14:55:25;14.43;;;9.57;;
2620;SDS011;1320;48.128;11.592;2023-02-28T14:57:53;14.07;;;10.37;;
2620;SDS011;1320;48.128;11.592;2023-02-28T15:00:27;14.33;;;11.27;;
2620;SDS011;1320;48.128;11.592;2023-02-28T15:02:54;13.83;;;10.43;;
2620;SDS011;1320;48.128;11.592;2023-02-28T15:05:25;11.33;;;9.47;;
2620;SDS011;1320;48.128;11.592;2023-02-28T15:10:37;13.57;;;10.10;;
2620;SDS011;1320;48.128;11.592;2023-02-28T15:13:05;15.83;;;11.53;;
2620;SDS011;1320;48.128;11.592;2023-02-28T15:17:58;13.53;;;10.03;;
2620;SDS011;1320;48.128;11.592;2023-02-28T15:20:25;11.23;;;9.60;;
2620;SDS011;1320;48.128;11.592;2023-02-28T15:22:52;14.73;;;10.33;;
2620;SDS011;1320;48.128;11.592;2023-02-28T15:25:20;19.30;;;9.50;;
2620;SDS011;1320;48.128;11.592;2023-02-28T15:27:48;13.33;;;10.30;;
2620;SDS011;1320;48.128;11.592;2023-02-28T15:30:16;14.20;;;11.20;;
2620;SDS011;1320;48.128;11.592;2023-02-28T15:32:44;13.43;;;10.53;;
2620;SDS011;1320;48.128;11.592;2023-02-28T15:35:19;14.20;;;11.23;;
2620;SDS011;1320;48.128;11.592;2023-02-28T15:37:46;18.97;;;10.77;;
2620;SDS011;1320;48.128;11.592;2023-02-28T15:40:15;15.27;;;10.87;;
2620;SDS011;1320;48.128;11.592;2023-02-28T15:43:37;12.03;;;10.60;;
2620;SDS011;1320;48.128;11.592;2023-02-28T15:51:20;13.80;;;9.82;;
2620;SDS011;1320;48.128;11.592;2023-02-28T15:53:56;14.20;;;10.77;;
2620;SDS011;1320;48.128;11.592;2023-02-28T15:58:57;14.30;;;12.23;;
2620;SDS011;1320;48.128;11.592;2023-02-28T16:01:31;21.00;;;11.32;;
2620;SDS011;1320;48.128;11.592;2023-02-28T16:04:03;18.98;;;11.13;;
2620;SDS011;1320;48.128;11.592;2023-02-28T16:08:59;14.75;;;10.07;;
2620;SDS011;1320;48.128;11.592;2023-02-28T16:11:24;14.90;;;11.30;;
2620;SDS011;1320;48.128;11.592;2023-02-28T16:13:50;15.93;;;10.90;;
2620;SDS011;1320;48.128;11.592;2023-02-28T16:16:17;12.48;;;9.73;;
2620;SDS011;1320;48.128;11.592;2023-02-28T16:18:44;21.45;;;12.15;;
2620;SDS011;1320;48.128;11.592;2023-02-28T16:21:10;16.90;;;10.95;;
2620;SDS011;1320;48.128;11.592;2023-02-28T16:23:36;16.10;;;9.80;;
2620;SDS011;1320;48.128;11.592;2023-02-28T16:26:03;14.83;;;10.40;;
2620;SDS011;1320;48.128;11.592;2023-02-28T16:28:33;15.40;;;10.13;;
2620;SDS011;1320;48.128;11.592;2023-02-28T16:31:02;15.60;;;11.63;;
2620;SDS011;1320;48.128;11.592;2023-02-28T16:33:30;15.10;;;10.55;;
2620;SDS011;1320;48.128;11.592;2023-02-28T16:35:57;23.60;;;14.55;;
2620;SDS011;1320;48.128;11.592;2023-02-28T16:38:24;19.65;;;13.18;;
2620;SDS011;1320;48.128;11.592;2023-02-28T16:40:50;20.70;;;15.83;;
2620;SDS011;1320;48.128;11.592;2023-02-28T16:43:18;22.38;;;14.93;;
2620;SDS011;1320;48.128;11.592;2023-02-28T16:45:48;16.83;;;12.30;;
2620;SDS011;1320;48.128;11.592;2023-02-28T16:48:18;18.45;;;12.93;;
2620;SDS011;1320;48.128;11.592;2023-02-28T16:53:14;15.48;;;11.07;;
2620;SDS011;1320;48.128;11.592;2023-02-28T16:55:39;17.50;;;11.60;;
2620;SDS011;1320;48.128;11.592;2023-02-28T16:58:05;18.73;;;12.27;;
2620;SDS011;1320;48.128;11.592;2023-02-28T17:00:31;14.87;;;10.20;;
2620;SDS011;1320;48.128;11.592;2023-02-28T17:02:58;18.80;;;12.43;;
2620;SDS011;1320;48.128;11.592;2023-02-28T17:05:24;19.30;;;12.13;;
2620;SDS011;1320;48.128;11.592;2023-02-28T17:07:53;14.95;;;10.90;;
2620;SDS011;1320;48.128;11.592;2023-02-28T17:10:23;18.63;;;12.00;;
2620;SDS011;1320;48.128;11.592;2023-02-28T17:12:50;16.00;;;11.68;;
2620;SDS011;1320;48.128;11.592;2023-02-28T17:15:17;16.42;;;11.23;;
2620;SDS011;1320;48.128;11.592;2023-02-28T17:17:44;23.70;;;13.52;;
2620;SDS011;1320;48.128;11.592;2023-02-28T17:20:15;19.38;;;12.40;;
2620;SDS011;1320;48.128;11.592;2023-02-28T17:22:50;21.67;;;12.93;;
2620;SDS011;1320;48.128;11.592;2023-02-28T17:25:16;18.50;;;12.18;;
2620;SDS011;1320;48.128;11.592;2023-02-28T17:27:42;17.38;;;12.32;;
2620;SDS011;1320;48.128;11.592;2023-02-28T17:30:18;19.07;;;14.23;;
2620;SDS011;1320;48.128;11.592;2023-02-28T17:32:46;25.23;;;15.75;;
2620;SDS011;1320;48.128;11.592;2023-02-28T17:35:12;26.50;;;16.43;;
2620;SDS011;1320;48.128;11.592;2023-02-28T17:37:38;23.55;;;16.10;;
2620;SDS011;1320;48.128;11.592;2023-02-28T17:40:04;22.43;;;15.73;;
2620;SDS011;1320;48.128;11.592;2023-02-28T17:42:30;19.35;;;14.68;;
2620;SDS011;1320;48.128;11.592;2023-02-28T17:44:56;22.87;;;15.20;;
2620;SDS011;1320;48.128;11.592;2023-02-28T17:47:22;19.03;;;14.13;;
2620;SDS011;1320;48.128;11.592;2023-02-28T17:49:47;19.10;;;12.20;;
2620;SDS011;1320;48.128;11.592;2023-02-28T17:52:13;20.17;;;13.20;;
2620;SDS011;1320;48.128;11.592;2023-02-28T17:54:39;22.30;;;12.50;;
2620;SDS011;1320;48.128;11.592;2023-02-28T17:57:04;19.97;;;11.97;;
2620;SDS011;1320;48.128;11.592;2023-02-28T17:59:30;17.10;;;12.03;;
2620;SDS011;1320;48.128;11.592;2023-02-28T18:02:01;16.42;;;12.15;;